Main page


Airports :

Birmingham, England

Birmingham Airport

latitude: 52-27N, longitude: 001-44W, elevation: 99 m

Current weather observation

The report was made 19 minutes ago, at 13:50 UTC
Wind 10 kt from variable directions with gusts up to 23 kt
Temperature 11°C
Humidity 71%
Pressure 1012 hPa
Visibility 10 km or more
Scattered clouds at a height of 2500 ft
Scattered clouds at a height of 4000 ft

METAR: EGBB 231350Z VRB10G23KT 9999 SCT025 SCT040 11/06 Q1012

Time: 15:09 (14:09 UTC)


The report was made 3 hours and 7 minutes ago, at 11:02 UTC
Forecast valid from 23 at 12 UTC to 24 at 12 UTC
Wind 9 kt from the East/Northeast
Visibility 10 km or more
Scattered clouds at a height of 2400 ft
Probability 30% :
from 24 at 08 UTC to 24 at 12 UTC
Visibility: 8000 m
light rain

TAF: EGBB 231102Z 2312/2412 07009KT 9999 SCT024 PROB30 TEMPO 2408/2412 8000 -RA

Weather observations and forecasts of more than 4000 airports (METAR and TAF reports).

The available stations are represented by yellow and red dots on the map.

Hover mouse over dot to see the name of the station.

Then click to see weather observations and forecasts.

To change the map : click on the green buttons with a black cross to zoom in, on the green button with a dash to zoom out, or on the green arrows for adjacent maps.